createdAt,value
2018-11-10T00:00:22.314Z,90.40
2018-11-10T00:02:54.858Z,90.40
2018-11-10T00:05:27.060Z,90.50
2018-11-10T00:07:59.225Z,90.50
2018-11-10T00:10:31.497Z,90.40
2018-11-10T00:13:04.232Z,90.80
2018-11-10T00:15:36.226Z,90.60
2018-11-10T00:18:08.825Z,90.60
2018-11-10T00:20:41.027Z,91.00
2018-11-10T00:23:13.405Z,90.60
2018-11-10T00:25:45.299Z,90.50
2018-11-10T00:28:17.468Z,90.50
2018-11-10T00:30:49.487Z,90.50
2018-11-10T00:33:21.593Z,90.40
2018-11-10T00:35:53.647Z,90.30
2018-11-10T00:38:25.737Z,90.30
2018-11-10T00:40:57.898Z,90.40
2018-11-10T00:43:29.861Z,90.40
2018-11-10T00:46:02.076Z,90.30
2018-11-10T00:48:34.275Z,90.40
2018-11-10T00:51:06.414Z,90.40
2018-11-10T00:53:38.517Z,90.30
2018-11-10T00:56:10.831Z,90.40
2018-11-10T00:58:43.064Z,90.30
2018-11-10T01:01:15.135Z,90.30
2018-11-10T01:03:47.049Z,90.10
2018-11-10T01:06:19.270Z,90.20
2018-11-10T01:08:51.222Z,90.30
2018-11-10T01:11:23.259Z,90.10
2018-11-10T01:13:55.075Z,90.50
2018-11-10T01:16:27.305Z,90.40
2018-11-10T01:18:59.587Z,90.30
2018-11-10T01:21:31.532Z,90.30
2018-11-10T01:24:03.357Z,90.30
2018-11-10T01:26:35.373Z,90.20
2018-11-10T01:29:08.193Z,90.30
2018-11-10T01:31:40.276Z,90.40
2018-11-10T01:34:12.365Z,90.30
2018-11-10T01:36:44.725Z,90.30
2018-11-10T01:39:16.440Z,90.30
2018-11-10T01:41:48.815Z,90.40
2018-11-10T01:44:20.908Z,90.50
2018-11-10T01:46:53.035Z,90.30
2018-11-10T01:49:25.124Z,90.20
2018-11-10T01:51:57.126Z,90.40
2018-11-10T01:54:28.854Z,90.10
2018-11-10T01:57:01.800Z,90.10
2018-11-10T01:59:33.839Z,90.30
2018-11-10T02:02:06.149Z,90.20
2018-11-10T02:04:38.004Z,90.30
2018-11-10T02:07:10.282Z,90.30
2018-11-10T02:09:42.242Z,90.10
2018-11-10T02:12:14.289Z,90.00
2018-11-10T02:14:46.241Z,90.10
2018-11-10T02:17:18.446Z,90.00
2018-11-10T02:19:50.832Z,90.10
2018-11-10T02:22:22.910Z,90.00
2018-11-10T02:24:54.878Z,90.10
2018-11-10T02:27:26.900Z,90.20
2018-11-10T02:29:59.034Z,90.10
2018-11-10T02:32:30.980Z,90.10
2018-11-10T02:35:02.829Z,90.00
2018-11-10T02:37:34.685Z,90.00
2018-11-10T02:40:07.040Z,90.10
2018-11-10T02:42:39.137Z,90.00
2018-11-10T02:45:12.590Z,90.10
2018-11-10T02:47:45.467Z,90.20
2018-11-10T02:50:17.694Z,90.10
2018-11-10T02:52:49.548Z,90.00
2018-11-10T02:55:21.677Z,90.00
2018-11-10T02:57:53.643Z,90.00
2018-11-10T03:00:25.542Z,90.20
2018-11-10T03:02:57.558Z,90.10
2018-11-10T03:05:29.960Z,90.00
2018-11-10T03:08:02.930Z,90.10
2018-11-10T03:10:35.215Z,90.10
2018-11-10T03:13:07.678Z,89.90
2018-11-10T03:15:39.318Z,90.00
2018-11-10T03:18:10.969Z,90.00
2018-11-10T03:20:42.856Z,90.00
2018-11-10T03:23:14.813Z,90.00
2018-11-10T03:25:46.656Z,90.00
2018-11-10T03:28:18.724Z,90.10
2018-11-10T03:30:50.564Z,90.10
2018-11-10T03:33:22.541Z,90.10
2018-11-10T03:35:54.733Z,90.00
2018-11-10T03:38:27.726Z,90.10
2018-11-10T03:41:00.734Z,90.20
2018-11-10T03:43:32.944Z,90.00
2018-11-10T03:46:04.421Z,90.00
2018-11-10T03:48:36.283Z,90.10
2018-11-10T03:51:08.395Z,90.10
2018-11-10T03:53:40.710Z,90.00
2018-11-10T03:56:12.984Z,90.10
2018-11-10T03:58:44.796Z,90.00
2018-11-10T04:01:17.168Z,90.20
2018-11-10T04:03:49.207Z,90.00
2018-11-10T04:06:21.353Z,90.00
2018-11-10T04:08:53.690Z,90.00
2018-11-10T04:11:26.005Z,90.10
2018-11-10T04:13:57.857Z,90.00
2018-11-10T04:16:29.876Z,90.00
2018-11-10T04:19:02.056Z,90.00
2018-11-10T04:21:34.385Z,90.00
2018-11-10T04:24:06.453Z,90.00
2018-11-10T04:26:38.381Z,90.00
2018-11-10T04:29:10.208Z,90.00
2018-11-10T04:31:42.213Z,90.00
2018-11-10T04:34:14.257Z,89.80
2018-11-10T04:36:47.061Z,90.00
2018-11-10T04:39:19.313Z,90.00
2018-11-10T04:41:51.272Z,90.00
2018-11-10T04:44:23.378Z,90.00
2018-11-10T04:46:55.270Z,89.90
2018-11-10T04:49:27.095Z,90.10
2018-11-10T04:51:59.356Z,90.00
2018-11-10T04:54:31.328Z,90.00
2018-11-10T04:57:03.277Z,90.00
2018-11-10T04:59:35.225Z,90.00
2018-11-10T05:02:07.221Z,89.70
2018-11-10T05:04:39.244Z,90.00
2018-11-10T05:07:11.030Z,89.90
2018-11-10T05:09:42.934Z,90.00
2018-11-10T05:12:15.577Z,90.00
2018-11-10T05:14:47.709Z,90.00
2018-11-10T05:17:19.683Z,89.90
2018-11-10T05:19:51.585Z,90.00
2018-11-10T05:22:23.525Z,89.80
2018-11-10T05:24:55.573Z,89.90
2018-11-10T05:27:27.301Z,89.80
2018-11-10T05:29:59.581Z,89.80
2018-11-10T05:32:31.576Z,89.80
2018-11-10T05:35:03.397Z,89.60
2018-11-10T05:37:35.163Z,89.60
2018-11-10T05:40:07.687Z,89.70
2018-11-10T05:42:39.713Z,89.80
2018-11-10T05:45:12.741Z,89.60
2018-11-10T05:47:44.607Z,89.70
2018-11-10T05:50:16.466Z,89.70
2018-11-10T05:52:48.529Z,89.60
2018-11-10T05:55:20.454Z,89.70
2018-11-10T05:57:52.541Z,89.50
2018-11-10T06:00:24.670Z,89.50
2018-11-10T06:02:57.603Z,89.60
2018-11-10T06:05:29.600Z,89.50
2018-11-10T06:08:01.388Z,89.50
2018-11-10T06:10:33.446Z,89.50
2018-11-10T06:13:05.476Z,89.50
2018-11-10T06:15:37.450Z,89.50
2018-11-10T06:18:09.553Z,90.00
2018-11-10T06:20:41.585Z,89.60
2018-11-10T06:23:13.422Z,89.40
2018-11-10T06:25:45.529Z,89.60
2018-11-10T06:28:17.614Z,89.50
2018-11-10T06:30:49.403Z,89.50
2018-11-10T06:33:21.475Z,89.60
2018-11-10T06:35:53.412Z,89.40
2018-11-10T06:38:25.441Z,89.40
2018-11-10T06:40:58.394Z,89.40
2018-11-10T06:43:30.402Z,89.30
2018-11-10T06:46:02.318Z,89.30
2018-11-10T06:48:34.318Z,89.30
2018-11-10T06:51:06.635Z,89.30
2018-11-10T06:53:53.660Z,89.40
2018-11-10T06:56:43.881Z,89.40
2018-11-10T06:59:18.588Z,89.50
2018-11-10T07:01:50.739Z,89.20
2018-11-10T07:04:23.356Z,89.40
2018-11-10T07:06:55.814Z,89.30
2018-11-10T07:09:29.068Z,89.20
2018-11-10T07:12:01.343Z,89.30
2018-11-10T07:14:33.129Z,89.10
2018-11-10T07:17:08.797Z,89.30
2018-11-10T07:19:42.707Z,89.40
2018-11-10T07:22:15.035Z,89.40
2018-11-10T07:24:47.280Z,89.30
2018-11-10T07:27:19.235Z,89.10
2018-11-10T07:29:51.410Z,89.20
2018-11-10T07:32:23.468Z,89.20
2018-11-10T07:34:55.957Z,89.20
2018-11-10T07:37:28.881Z,89.10
2018-11-10T07:40:02.671Z,89.10
2018-11-10T07:42:34.645Z,89.50
2018-11-10T07:45:07.409Z,89.60
2018-11-10T07:47:39.462Z,89.60
2018-11-10T07:50:12.183Z,90.00
2018-11-10T07:52:44.545Z,89.80
2018-11-10T07:55:17.070Z,90.00
2018-11-10T07:57:49.211Z,90.00
2018-11-10T08:00:21.279Z,90.00
2018-11-10T08:02:53.320Z,89.90
2018-11-10T08:05:25.215Z,89.80
2018-11-10T08:07:57.372Z,89.70
2018-11-10T08:10:29.633Z,89.70
2018-11-10T08:13:01.902Z,89.80
2018-11-10T08:15:33.864Z,89.90
2018-11-10T08:18:06.239Z,89.60
2018-11-10T08:20:38.244Z,90.00
2018-11-10T08:23:10.258Z,90.00
2018-11-10T08:25:42.408Z,89.80
2018-11-10T08:28:14.334Z,89.70
2018-11-10T08:30:46.275Z,90.00
2018-11-10T08:33:18.020Z,89.90
2018-11-10T08:35:50.147Z,89.90
2018-11-10T08:38:22.891Z,89.80
2018-11-10T08:40:55.284Z,89.90
2018-11-10T08:43:29.682Z,90.00
2018-11-10T08:46:02.021Z,89.80
2018-11-10T08:48:37.402Z,90.20
2018-11-10T08:51:10.419Z,89.90
2018-11-10T08:53:43.867Z,89.80
2018-11-10T08:56:16.090Z,89.80
2018-11-10T08:58:47.989Z,89.60
2018-11-10T09:01:25.640Z,89.70
2018-11-10T09:03:59.606Z,89.60
2018-11-10T09:06:32.693Z,89.70
2018-11-10T09:09:05.241Z,90.00
2018-11-10T09:11:37.661Z,89.70
2018-11-10T09:14:10.369Z,90.10
2018-11-10T09:16:42.656Z,89.80
2018-11-10T09:19:15.051Z,89.90
2018-11-10T09:21:47.828Z,89.90
2018-11-10T09:24:19.985Z,90.00
2018-11-10T09:26:52.132Z,90.10
2018-11-10T09:29:24.961Z,90.00
2018-11-10T09:31:57.821Z,90.00
2018-11-10T09:34:29.590Z,90.00
2018-11-10T09:37:01.588Z,90.20
2018-11-10T09:39:34.254Z,90.10
2018-11-10T09:42:06.589Z,90.20
2018-11-10T09:44:38.558Z,90.00
2018-11-10T09:47:10.598Z,90.10
2018-11-10T09:49:42.820Z,90.20
2018-11-10T09:52:14.965Z,90.20
2018-11-10T09:54:46.925Z,90.10
2018-11-10T09:57:18.879Z,90.10
2018-11-10T09:59:50.900Z,90.10
2018-11-10T10:02:23.517Z,90.10
2018-11-10T10:04:55.385Z,90.10
2018-11-10T10:07:27.383Z,90.10
2018-11-10T10:10:01.269Z,90.20
2018-11-10T10:12:34.084Z,90.10
2018-11-10T10:15:06.915Z,90.10
2018-11-10T10:17:39.214Z,90.10
2018-11-10T10:20:14.062Z,90.20
2018-11-10T10:22:46.996Z,90.10
2018-11-10T10:25:20.034Z,90.10
2018-11-10T10:27:52.483Z,90.10
2018-11-10T10:30:25.891Z,90.10
2018-11-10T10:32:58.488Z,90.10
2018-11-10T10:35:32.701Z,90.20
2018-11-10T10:38:05.593Z,90.10
2018-11-10T10:40:37.842Z,90.10
2018-11-10T10:43:11.076Z,90.20
2018-11-10T10:45:44.481Z,90.00
2018-11-10T10:48:16.649Z,90.10
2018-11-10T10:50:48.515Z,90.10
2018-11-10T10:53:20.551Z,90.00
2018-11-10T10:55:52.700Z,90.20
2018-11-10T10:58:25.176Z,90.20
2018-11-10T11:01:02.155Z,90.30
2018-11-10T11:03:39.257Z,90.20
2018-11-10T11:06:12.560Z,90.20
2018-11-10T11:08:44.624Z,90.10
2018-11-10T11:11:16.536Z,90.10
2018-11-10T11:13:48.486Z,90.20
2018-11-10T11:16:20.756Z,90.20
2018-11-10T11:18:52.853Z,90.30
2018-11-10T11:21:25.359Z,90.20
2018-11-10T11:23:57.573Z,90.20
2018-11-10T11:26:29.609Z,90.20
2018-11-10T11:29:02.001Z,90.30
2018-11-10T11:31:34.137Z,90.30
2018-11-10T11:34:06.402Z,90.20
2018-11-10T11:36:38.420Z,90.20
2018-11-10T11:39:12.173Z,90.30
2018-11-10T11:41:43.996Z,90.20
2018-11-10T11:44:16.184Z,90.30
2018-11-10T11:46:48.085Z,90.10
2018-11-10T11:49:20.306Z,90.10
2018-11-10T11:51:53.168Z,90.20
2018-11-10T11:54:26.032Z,90.30
2018-11-10T11:56:58.423Z,90.30
2018-11-10T11:59:30.733Z,90.10
2018-11-10T12:02:02.978Z,90.10
2018-11-10T12:04:35.127Z,90.10
2018-11-10T12:07:07.273Z,90.10
2018-11-10T12:09:40.601Z,90.10
2018-11-10T12:12:13.230Z,90.10
2018-11-10T12:14:45.194Z,90.00
2018-11-10T12:17:19.298Z,90.10
2018-11-10T12:19:52.260Z,90.20
2018-11-10T12:22:24.367Z,90.20
2018-11-10T12:24:56.316Z,90.10
2018-11-10T12:27:28.537Z,90.10
2018-11-10T12:30:00.725Z,90.10
2018-11-10T12:32:32.760Z,89.30
2018-11-10T12:35:05.149Z,89.20
2018-11-10T12:37:37.309Z,89.30
2018-11-10T12:40:10.745Z,90.00
2018-11-10T12:42:43.268Z,89.30
2018-11-10T12:45:15.412Z,89.20
2018-11-10T12:47:47.267Z,89.10
2018-11-10T12:50:20.396Z,89.10
2018-11-10T12:52:54.382Z,89.10
2018-11-10T12:55:27.735Z,89.00
2018-11-10T12:58:00.507Z,89.40
2018-11-10T13:00:32.757Z,89.20
2018-11-10T13:03:05.633Z,89.30
2018-11-10T13:05:37.752Z,89.70
2018-11-10T13:08:09.849Z,89.40
2018-11-10T13:10:42.092Z,89.10
2018-11-10T13:13:14.059Z,89.20
2018-11-10T13:15:46.177Z,88.90
2018-11-10T13:18:18.523Z,88.90
2018-11-10T13:20:51.437Z,88.90
2018-11-10T13:23:23.799Z,88.90
2018-11-10T13:25:55.907Z,89.00
2018-11-10T13:28:28.148Z,89.10
2018-11-10T13:31:00.435Z,89.10
2018-11-10T13:33:32.592Z,89.00
2018-11-10T13:36:04.954Z,89.00
2018-11-10T13:38:36.907Z,89.30
2018-11-10T13:41:15.490Z,89.00
2018-11-10T13:43:55.491Z,89.00
2018-11-10T13:46:28.280Z,89.10
2018-11-10T13:49:01.115Z,89.10
2018-11-10T13:51:33.480Z,89.10
2018-11-10T13:54:05.512Z,89.10
2018-11-10T13:56:37.611Z,89.10
2018-11-10T13:59:09.854Z,89.70
2018-11-10T14:01:42.160Z,89.40
2018-11-10T14:04:14.647Z,89.20
2018-11-10T14:06:46.613Z,89.30
2018-11-10T14:09:18.909Z,89.40
2018-11-10T14:11:51.180Z,89.80
2018-11-10T14:14:23.488Z,89.50
2018-11-10T14:16:55.731Z,89.80
2018-11-10T14:19:27.840Z,89.50
2018-11-10T14:21:59.858Z,89.40
2018-11-10T14:24:31.838Z,89.60
2018-11-10T14:27:03.916Z,89.50
2018-11-10T14:29:36.028Z,90.40
2018-11-10T14:32:08.104Z,90.30
2018-11-10T14:34:40.257Z,90.30
2018-11-10T14:37:12.400Z,90.10
2018-11-10T14:39:44.474Z,90.10
2018-11-10T14:42:17.341Z,90.00
2018-11-10T14:44:49.292Z,90.00
2018-11-10T14:47:21.431Z,90.00
2018-11-10T14:49:53.506Z,89.90
2018-11-10T14:52:25.495Z,89.80
2018-11-10T14:54:57.791Z,89.90
2018-11-10T14:57:29.852Z,89.60
2018-11-10T15:00:01.997Z,90.00
2018-11-10T15:02:34.381Z,89.60
2018-11-10T15:05:07.310Z,89.70
2018-11-10T15:07:40.756Z,89.60
2018-11-10T15:10:15.867Z,89.60
2018-11-10T15:12:48.072Z,89.60
2018-11-10T15:15:20.694Z,89.50
2018-11-10T15:17:52.985Z,89.50
2018-11-10T15:20:25.293Z,89.40
2018-11-10T15:22:57.579Z,89.70
2018-11-10T15:25:30.155Z,89.70
2018-11-10T15:28:03.323Z,89.60
2018-11-10T15:30:36.223Z,89.40
2018-11-10T15:33:08.331Z,89.70
2018-11-10T15:35:41.286Z,89.50
2018-11-10T15:38:13.960Z,90.00
2018-11-10T15:40:46.385Z,89.40
2018-11-10T15:43:18.418Z,89.50
2018-11-10T15:45:50.293Z,89.50
2018-11-10T15:48:22.722Z,89.40
2018-11-10T15:50:54.708Z,89.30
2018-11-10T15:53:26.850Z,89.30
2018-11-10T15:55:58.810Z,89.30
2018-11-10T15:58:30.793Z,89.40
2018-11-10T16:01:02.922Z,89.40
2018-11-10T16:03:34.736Z,89.30
2018-11-10T16:06:06.976Z,89.40
2018-11-10T16:08:39.229Z,89.40
2018-11-10T16:11:11.825Z,89.30
2018-11-10T16:13:43.869Z,89.30
2018-11-10T16:16:16.032Z,89.30
2018-11-10T16:18:48.321Z,89.30
2018-11-10T16:21:20.343Z,89.20
2018-11-10T16:23:52.799Z,89.20
2018-11-10T16:26:25.036Z,89.20
2018-11-10T16:28:57.294Z,89.30
2018-11-10T16:31:29.621Z,89.30
2018-11-10T16:34:01.819Z,89.20
2018-11-10T16:36:33.795Z,89.20
2018-11-10T16:39:08.934Z,89.20
2018-11-10T16:41:40.994Z,89.40
2018-11-10T16:44:13.334Z,89.30
2018-11-10T16:46:45.416Z,89.20
2018-11-10T16:49:17.479Z,89.20
2018-11-10T16:51:49.573Z,89.20
2018-11-10T16:54:21.679Z,89.20
2018-11-10T16:56:54.029Z,89.20
2018-11-10T16:59:26.224Z,89.20
2018-11-10T17:01:58.519Z,89.20
2018-11-10T17:04:30.775Z,89.20
2018-11-10T17:07:02.807Z,89.20
2018-11-10T17:09:34.850Z,89.20
2018-11-10T17:12:07.021Z,89.20
2018-11-10T17:14:39.275Z,89.20
2018-11-10T17:17:11.574Z,89.10
2018-11-10T17:19:44.018Z,89.20
2018-11-10T17:22:16.530Z,89.10
2018-11-10T17:24:48.449Z,89.20
2018-11-10T17:27:20.840Z,89.20
2018-11-10T17:29:53.602Z,89.20
2018-11-10T17:32:25.912Z,89.20
2018-11-10T17:34:58.021Z,89.30
2018-11-10T17:37:31.112Z,89.30
2018-11-10T17:40:04.181Z,89.20
2018-11-10T17:42:36.269Z,89.20
2018-11-10T17:45:09.792Z,89.20
2018-11-10T17:47:42.148Z,89.30
2018-11-10T17:50:15.223Z,89.70
2018-11-10T17:52:47.699Z,89.70
2018-11-10T17:55:19.908Z,89.60
2018-11-10T17:57:52.929Z,89.50
2018-11-10T18:00:25.210Z,89.50
2018-11-10T18:02:57.524Z,89.60
2018-11-10T18:05:29.804Z,89.50
2018-11-10T18:08:02.104Z,89.50
2018-11-10T18:10:34.289Z,89.50
2018-11-10T18:13:06.674Z,89.60
2018-11-10T18:15:38.977Z,89.60
2018-11-10T18:18:11.144Z,89.60
2018-11-10T18:20:43.420Z,89.70
2018-11-10T18:23:16.261Z,89.60
2018-11-10T18:25:48.947Z,89.70
2018-11-10T18:28:21.704Z,89.60
2018-11-10T18:30:55.025Z,89.60
2018-11-10T18:33:27.147Z,89.50
2018-11-10T18:35:59.873Z,89.60
2018-11-10T18:38:32.144Z,89.70
2018-11-10T18:41:04.392Z,89.60
2018-11-10T18:43:36.481Z,89.70
2018-11-10T18:46:08.921Z,89.70
2018-11-10T18:48:41.484Z,89.60
2018-11-10T18:51:13.725Z,89.60
2018-11-10T18:53:46.336Z,89.70
2018-11-10T18:56:18.786Z,89.80
2018-11-10T18:58:51.110Z,89.70
2018-11-10T19:01:24.228Z,89.60
2018-11-10T19:03:57.446Z,89.60
2018-11-10T19:06:29.939Z,89.70
2018-11-10T19:09:02.042Z,89.60
2018-11-10T19:11:35.330Z,89.70
2018-11-10T19:14:07.898Z,89.70
2018-11-10T19:16:41.732Z,89.70
2018-11-10T19:19:14.070Z,89.70
2018-11-10T19:21:46.281Z,89.70
2018-11-10T19:24:20.263Z,89.50
2018-11-10T19:26:53.456Z,89.60
2018-11-10T19:29:25.726Z,89.70
2018-11-10T19:31:59.620Z,89.70
2018-11-10T19:34:31.789Z,89.50
2018-11-10T19:37:07.328Z,89.50
2018-11-10T19:39:39.972Z,89.70
2018-11-10T19:42:12.198Z,89.70
2018-11-10T19:44:45.143Z,89.60
2018-11-10T19:47:17.433Z,89.80
2018-11-10T19:49:49.688Z,89.60
2018-11-10T19:52:21.786Z,89.90
2018-11-10T19:54:54.282Z,89.70
2018-11-10T19:57:26.608Z,90.10
2018-11-10T19:59:58.745Z,89.90
2018-11-10T20:02:32.453Z,89.80
2018-11-10T20:05:04.558Z,89.70
2018-11-10T20:07:37.003Z,89.70
2018-11-10T20:10:10.951Z,89.70
2018-11-10T20:12:44.241Z,89.70
2018-11-10T20:15:17.374Z,89.70
2018-11-10T20:17:49.778Z,89.70
2018-11-10T20:20:22.833Z,89.70
2018-11-10T20:22:55.088Z,89.70
2018-11-10T20:25:27.789Z,89.90
2018-11-10T20:27:59.955Z,89.60
2018-11-10T20:30:32.438Z,89.70
2018-11-10T20:33:05.192Z,89.70
2018-11-10T20:35:37.618Z,89.70
2018-11-10T20:38:09.720Z,89.60
2018-11-10T20:40:42.089Z,89.70
2018-11-10T20:43:14.223Z,89.60
2018-11-10T20:45:46.422Z,89.90
2018-11-10T20:48:18.527Z,89.80
2018-11-10T20:50:50.673Z,89.80
2018-11-10T20:53:23.076Z,89.60
2018-11-10T20:55:55.452Z,89.90
2018-11-10T20:58:27.577Z,89.80
2018-11-10T21:01:00.025Z,89.80
2018-11-10T21:03:33.042Z,89.80
2018-11-10T21:06:05.544Z,89.80
2018-11-10T21:08:37.676Z,90.00
2018-11-10T21:11:10.727Z,89.90
2018-11-10T21:13:43.041Z,89.90
2018-11-10T21:16:15.216Z,89.90
2018-11-10T21:18:47.590Z,89.70
2018-11-10T21:21:19.861Z,89.90
2018-11-10T21:23:52.499Z,89.70
2018-11-10T21:26:24.706Z,89.80
2018-11-10T21:28:57.172Z,89.90
2018-11-10T21:31:30.313Z,89.80
2018-11-10T21:34:02.489Z,90.10
2018-11-10T21:36:35.341Z,89.60
2018-11-10T21:39:10.891Z,89.70
2018-11-10T21:41:43.229Z,90.00
2018-11-10T21:44:15.432Z,90.00
2018-11-10T21:46:47.891Z,90.00
2018-11-10T21:49:20.375Z,89.90
2018-11-10T21:51:58.087Z,89.80
2018-11-10T21:54:30.322Z,89.70
2018-11-10T21:57:03.266Z,90.00
2018-11-10T21:59:35.464Z,90.00
2018-11-10T22:02:07.730Z,90.00
2018-11-10T22:04:40.029Z,89.90
2018-11-10T22:07:12.419Z,89.80
2018-11-10T22:09:44.772Z,90.00
2018-11-10T22:12:17.226Z,89.80
2018-11-10T22:14:49.981Z,89.80
2018-11-10T22:17:22.173Z,90.20
2018-11-10T22:19:54.316Z,89.70
2018-11-10T22:22:27.061Z,89.70
2018-11-10T22:24:59.678Z,89.70
2018-11-10T22:27:31.871Z,89.60
2018-11-10T22:30:04.386Z,89.60
2018-11-10T22:32:36.552Z,89.60
2018-11-10T22:35:09.133Z,89.60
2018-11-10T22:37:41.113Z,89.60
2018-11-10T22:40:14.839Z,89.60
2018-11-10T22:42:47.211Z,89.70
2018-11-10T22:45:20.540Z,89.60
2018-11-10T22:47:53.282Z,89.50
2018-11-10T22:50:26.167Z,89.50
2018-11-10T22:52:58.464Z,89.60
2018-11-10T22:55:30.871Z,89.50
2018-11-10T22:58:02.953Z,89.50
2018-11-10T23:00:36.041Z,89.50
2018-11-10T23:03:08.656Z,89.50
2018-11-10T23:05:40.800Z,89.50
2018-11-10T23:08:13.024Z,89.50
2018-11-10T23:10:45.007Z,89.50
2018-11-10T23:13:17.258Z,89.50
2018-11-10T23:15:49.530Z,89.30
2018-11-10T23:18:21.596Z,89.40
2018-11-10T23:20:53.945Z,89.50
2018-11-10T23:23:26.809Z,89.40
2018-11-10T23:25:59.008Z,89.60
2018-11-10T23:28:30.987Z,89.50
2018-11-10T23:31:03.267Z,89.50
2018-11-10T23:33:36.185Z,89.50
2018-11-10T23:36:08.724Z,89.60
2018-11-10T23:38:40.602Z,89.50
2018-11-10T23:41:13.437Z,89.60
2018-11-10T23:43:45.617Z,89.50
2018-11-10T23:46:17.884Z,89.70
2018-11-10T23:48:49.949Z,89.60
2018-11-10T23:51:22.158Z,89.60
2018-11-10T23:53:54.122Z,89.60
2018-11-10T23:56:26.493Z,89.70
2018-11-10T23:58:58.859Z,89.60
